Time,TemperatureF,DewpointF,PressureIn,WindDirection,WindDirectionDegrees,WindSpeedMPH,WindSpeedGustMPH,Humidity,HourlyPrecipIn,Conditions,Clouds,dailyrainin,SoftwareType,DateUTC
2014-01-01 00:12:00,44.0,42.0,30.31,ESE,105,11.0,20.0,92,0.00,,,0.00,,2014-01-01 08:12:00,
2014-01-01 00:21:00,44.0,42.0,30.31,NE,52,10.0,15.0,91,0.00,,,0.00,,2014-01-01 08:21:00,
2014-01-01 00:42:00,45.0,43.0,30.31,NE,43,3.0,11.0,92,0.00,,,0.00,,2014-01-01 08:42:00,
2014-01-01 00:52:00,45.0,43.0,30.31,East,84,4.0,11.0,92,0.00,,,0.00,,2014-01-01 08:52:00,
2014-01-01 01:11:00,44.0,42.0,30.30,ENE,69,8.0,12.0,91,0.00,,,0.00,,2014-01-01 09:11:00,
2014-01-01 01:21:00,44.0,42.0,30.30,ESE,110,8.0,16.0,91,0.00,,,0.00,,2014-01-01 09:21:00,
2014-01-01 01:43:00,44.0,42.0,30.30,ESE,114,6.0,16.0,91,0.00,,,0.00,,2014-01-01 09:43:00,
2014-01-01 01:53:00,44.0,42.0,30.30,ENE,61,7.0,15.0,91,0.00,,,0.00,,2014-01-01 09:53:00,
2014-01-01 02:12:00,44.0,42.0,30.30,NNE,20,7.0,15.0,91,0.00,,,0.00,,2014-01-01 10:12:00,
2014-01-01 02:23:00,44.0,41.0,30.29,ESE,109,15.0,24.0,89,0.00,,,0.00,,2014-01-01 10:23:00,
2014-01-01 02:43:00,45.0,42.0,30.29,East,99,17.0,29.0,88,0.00,,,0.00,,2014-01-01 10:43:00,
2014-01-01 02:53:00,45.0,41.0,30.29,ESE,110,17.0,28.0,87,0.00,,,0.00,,2014-01-01 10:53:00,
2014-01-01 03:12:00,45.0,41.0,30.29,East,92,17.0,26.0,87,0.00,,,0.00,,2014-01-01 11:12:00,
2014-01-01 03:22:00,44.0,40.0,30.30,ESE,106,12.0,27.0,86,0.00,,,0.00,,2014-01-01 11:22:00,
2014-01-01 03:42:00,45.0,41.0,30.30,ESE,123,13.0,24.0,86,0.00,,,0.00,,2014-01-01 11:42:00,
2014-01-01 03:53:00,45.0,41.0,30.30,East,100,15.0,23.0,85,0.00,,,0.00,,2014-01-01 11:53:00,
2014-01-01 04:12:00,45.0,40.0,30.30,SE,129,17.0,26.0,83,0.00,,,0.00,,2014-01-01 12:12:00,
2014-01-01 04:22:00,45.0,40.0,30.30,East,92,16.0,26.0,84,0.00,,,0.00,,2014-01-01 12:22:00,
2014-01-01 04:42:00,44.0,39.0,30.30,ESE,109,15.0,24.0,84,0.00,,,0.00,,2014-01-01 12:42:00,
2014-01-01 04:52:00,44.0,39.0,30.29,East,94,18.0,27.0,84,0.00,,,0.00,,2014-01-01 12:52:00,
2014-01-01 05:12:00,44.0,39.0,30.30,ESE,121,12.0,25.0,84,0.00,,,0.00,,2014-01-01 13:12:00,
2014-01-01 05:22:00,44.0,39.0,30.31,ESE,121,3.0,10.0,84,0.00,,,0.00,,2014-01-01 13:22:00,
2014-01-01 05:42:00,44.0,39.0,30.30,ENE,75,1.0,9.0,84,0.00,,,0.00,,2014-01-01 13:42:00,
2014-01-01 05:52:00,44.0,40.0,30.31,ENE,71,2.0,14.0,85,0.00,,,0.00,,2014-01-01 13:52:00,
2014-01-01 06:11:00,44.0,39.0,30.30,ESE,106,12.0,19.0,84,0.00,,,0.00,,2014-01-01 14:11:00,
2014-01-01 06:22:00,43.0,38.0,30.30,East,101,14.0,25.0,84,0.00,,,0.00,,2014-01-01 14:22:00,
2014-01-01 06:42:00,43.0,38.0,30.30,ESE,109,13.0,20.0,84,0.00,,,0.00,,2014-01-01 14:42:00,
2014-01-01 06:53:00,43.0,39.0,30.29,ESE,113,16.0,25.0,85,0.00,,,0.00,,2014-01-01 14:53:00,
2014-01-01 07:22:00,44.0,39.0,30.28,East,96,18.0,28.0,84,0.00,,,0.00,,2014-01-01 15:22:00,
2014-01-01 07:43:00,44.0,39.0,30.27,ESE,112,20.0,28.0,84,0.00,,,0.00,,2014-01-01 15:43:00,
2014-01-01 07:53:00,43.0,38.0,30.27,East,99,19.0,30.0,84,0.00,,,0.00,,2014-01-01 15:53:00,
2014-01-01 08:13:00,43.0,38.0,30.27,ESE,110,18.0,29.0,84,0.00,,,0.00,,2014-01-01 16:13:00,
2014-01-01 08:23:00,43.0,38.0,30.27,ESE,103,19.0,32.0,84,0.00,,,0.00,,2014-01-01 16:23:00,
2014-01-01 08:42:00,43.0,38.0,30.28,ESE,115,16.0,26.0,84,0.00,,,0.00,,2014-01-01 16:42:00,
2014-01-01 08:53:00,43.0,38.0,30.28,WSW,254,4.0,18.0,84,0.00,,,0.00,,2014-01-01 16:53:00,
2014-01-01 09:12:00,44.0,39.0,30.29,ESE,103,15.0,24.0,83,0.00,,,0.00,,2014-01-01 17:12:00,
2014-01-01 09:22:00,44.0,39.0,30.29,SE,129,13.0,21.0,82,0.00,,,0.00,,2014-01-01 17:22:00,
2014-01-01 09:43:00,45.0,40.0,30.29,East,100,14.0,25.0,81,0.00,,,0.00,,2014-01-01 17:43:00,
2014-01-01 09:52:00,45.0,40.0,30.28,SE,131,17.0,25.0,81,0.00,,,0.00,,2014-01-01 17:52:00,
2014-01-01 10:12:00,46.0,40.0,30.28,East,90,18.0,28.0,79,0.00,,,0.00,,2014-01-01 18:12:00,
2014-01-01 10:21:00,47.0,41.0,30.29,East,80,15.0,24.0,78,0.00,,,0.00,,2014-01-01 18:21:00,
2014-01-01 10:42:00,47.0,40.0,30.29,ESE,118,14.0,26.0,76,0.00,,,0.00,,2014-01-01 18:42:00,
2014-01-01 10:52:00,47.0,40.0,30.29,ESE,118,14.0,26.0,76,0.00,,,0.00,,2014-01-01 18:52:00,
2014-01-01 11:11:00,48.0,40.0,30.29,East,101,13.0,25.0,75,0.00,,,0.00,,2014-01-01 19:11:00,
2014-01-01 11:21:00,49.0,41.0,30.29,ESE,113,10.0,22.0,74,0.00,,,0.00,,2014-01-01 19:21:00,
2014-01-01 11:42:00,49.0,41.0,30.29,SE,125,10.0,20.0,75,0.00,,,0.00,,2014-01-01 19:42:00,
2014-01-01 11:52:00,50.0,43.0,30.29,ESE,117,9.0,18.0,76,0.00,,,0.00,,2014-01-01 19:52:00,
2014-01-01 12:12:00,51.0,43.0,30.29,SE,134,6.0,16.0,75,0.00,,,0.00,,2014-01-01 20:12:00,
2014-01-01 12:21:00,51.0,43.0,30.28,SE,125,2.0,10.0,74,0.00,,,0.00,,2014-01-01 20:21:00,
2014-01-01 12:42:00,51.0,43.0,30.28,ESE,112,1.0,13.0,73,0.00,,,0.00,,2014-01-01 20:42:00,
2014-01-01 12:53:00,52.0,42.0,30.27,East,97,9.0,16.0,69,0.00,,,0.00,,2014-01-01 20:53:00,
2014-01-01 13:11:00,53.0,42.0,30.26,East,81,6.0,17.0,67,0.00,,,0.00,,2014-01-01 21:11:00,
2014-01-01 13:21:00,54.0,43.0,30.25,ESE,122,8.0,15.0,66,0.00,,,0.00,,2014-01-01 21:21:00,
2014-01-01 13:43:00,53.0,43.0,30.24,SW,234,0.0,6.0,70,0.00,,,0.00,,2014-01-01 21:43:00,
2014-01-01 13:53:00,52.0,44.0,30.24,North,350,5.0,8.0,74,0.00,,,0.00,,2014-01-01 21:53:00,
2014-01-01 14:13:00,51.0,44.0,30.23,WNW,289,2.0,8.0,78,0.00,,,0.00,,2014-01-01 22:13:00,
2014-01-01 14:23:00,50.0,43.0,30.24,North,6,5.0,9.0,78,0.00,,,0.00,,2014-01-01 22:23:00,
2014-01-01 14:42:00,49.0,43.0,30.24,North,353,4.0,7.0,79,0.00,,,0.00,,2014-01-01 22:42:00,
2014-01-01 14:53:00,50.0,44.0,30.23,ESE,103,7.0,16.0,80,0.00,,,0.00,,2014-01-01 22:53:00,
2014-01-01 15:12:00,52.0,45.0,30.23,East,83,4.0,11.0,78,0.00,,,0.00,,2014-01-01 23:12:00,
2014-01-01 15:22:00,51.0,44.0,30.24,North,352,5.0,9.0,77,0.00,,,0.00,,2014-01-01 23:22:00,
2014-01-01 15:42:00,50.0,44.0,30.23,NE,42,1.0,8.0,79,0.00,,,0.00,,2014-01-01 23:42:00,
2014-01-01 15:52:00,53.0,45.0,30.22,East,100,10.0,17.0,75,0.00,,,0.00,,2014-01-01 23:52:00,
2014-01-01 16:11:00,53.0,44.0,30.24,SE,142,4.0,12.0,72,0.00,,,0.00,,2014-01-02 00:11:00,
2014-01-01 16:21:00,53.0,45.0,30.24,NNW,337,0.0,5.0,75,0.00,,,0.00,,2014-01-02 00:21:00,
2014-01-01 16:42:00,52.0,45.0,30.23,North,352,2.0,7.0,78,0.00,,,0.00,,2014-01-02 00:42:00,
2014-01-01 16:52:00,51.0,45.0,30.23,North,5,2.0,9.0,79,0.00,,,0.00,,2014-01-02 00:52:00,
2014-01-01 17:11:00,51.0,45.0,30.24,North,350,3.0,6.0,79,0.00,,,0.00,,2014-01-02 01:11:00,
2014-01-01 17:22:00,49.0,43.0,30.24,NNE,18,3.0,7.0,80,0.00,,,0.00,,2014-01-02 01:22:00,
2014-01-01 17:42:00,49.0,44.0,30.24,NE,37,3.0,7.0,82,0.00,,,0.00,,2014-01-02 01:42:00,
2014-01-01 17:52:00,48.0,43.0,30.24,NNE,29,0.0,4.0,82,0.00,,,0.00,,2014-01-02 01:52:00,
2014-01-01 18:11:00,47.0,42.0,30.24,NNW,343,1.0,4.0,84,0.00,,,0.00,,2014-01-02 02:11:00,
2014-01-01 18:21:00,47.0,43.0,30.24,SE,131,0.0,3.0,85,0.00,,,0.00,,2014-01-02 02:21:00,
2014-01-01 19:12:00,50.0,45.0,30.23,East,96,12.0,19.0,84,0.00,,,0.00,,2014-01-02 03:12:00,
2014-01-01 19:21:00,50.0,45.0,30.22,SE,125,14.0,22.0,83,0.00,,,0.00,,2014-01-02 03:21:00,
2014-01-01 19:43:00,50.0,45.0,30.22,East,101,13.0,21.0,83,0.00,,,0.00,,2014-01-02 03:43:00,
2014-01-01 19:53:00,50.0,44.0,30.22,SE,127,12.0,21.0,81,0.00,,,0.00,,2014-01-02 03:53:00,
2014-01-01 20:13:00,50.0,44.0,30.21,ESE,106,13.0,24.0,80,0.00,,,0.00,,2014-01-02 04:13:00,
2014-01-01 20:23:00,50.0,44.0,30.21,East,80,16.0,24.0,79,0.00,,,0.00,,2014-01-02 04:23:00,
2014-01-01 20:43:00,50.0,44.0,30.21,ESE,108,12.0,25.0,79,0.00,,,0.00,,2014-01-02 04:43:00,
2014-01-01 20:52:00,50.0,44.0,30.21,ESE,122,15.0,23.0,79,0.00,,,0.00,,2014-01-02 04:52:00,
2014-01-01 21:12:00,50.0,43.0,30.20,ESE,118,17.0,24.0,78,0.00,,,0.00,,2014-01-02 05:12:00,
2014-01-01 21:22:00,50.0,43.0,30.19,ESE,115,19.0,26.0,78,0.00,,,0.00,,2014-01-02 05:22:00,
2014-01-01 21:42:00,50.0,43.0,30.21,ENE,61,5.0,21.0,77,0.00,,,0.00,,2014-01-02 05:42:00,
2014-01-01 21:53:00,49.0,42.0,30.21,WNW,297,2.0,13.0,78,0.00,,,0.00,,2014-01-02 05:53:00,
2014-01-01 22:12:00,50.0,43.0,30.20,SE,130,11.0,19.0,78,0.00,,,0.00,,2014-01-02 06:12:00,
2014-01-01 22:22:00,50.0,43.0,30.19,East,98,20.0,30.0,77,0.00,,,0.00,,2014-01-02 06:22:00,
2014-01-01 22:42:00,50.0,43.0,30.20,SE,131,15.0,25.0,77,0.00,,,0.00,,2014-01-02 06:42:00,
2014-01-01 22:52:00,50.0,43.0,30.21,East,83,6.0,17.0,77,0.00,,,0.00,,2014-01-02 06:52:00,
2014-01-01 23:12:00,49.0,42.0,30.21,SE,125,13.0,22.0,77,0.00,,,0.00,,2014-01-02 07:12:00,
2014-01-01 23:22:00,49.0,42.0,30.22,ESE,102,6.0,13.0,78,0.00,,,0.00,,2014-01-02 07:22:00,
2014-01-01 23:42:00,48.0,42.0,30.22,ESE,119,10.0,17.0,79,0.00,,,0.00,,2014-01-02 07:42:00,
2014-01-01 23:52:00,49.0,42.0,30.21,ESE,108,12.0,18.0,78,0.00,,,0.00,,2014-01-02 07:52:00,